createdAt,value
2018-08-25T03:55:44.174Z,20.95
2018-08-25T03:59:52.091Z,20.90
2018-08-25T04:03:58.277Z,20.87
2018-08-25T04:08:05.112Z,20.88
2018-08-25T04:12:13.434Z,20.83
2018-08-25T04:16:21.775Z,20.80
2018-08-25T04:20:29.182Z,20.75
2018-08-25T04:24:36.964Z,20.73
2018-08-25T04:28:45.839Z,20.73
2018-08-25T04:32:51.482Z,20.75
2018-08-25T04:36:56.176Z,20.73
2018-08-25T09:13:50.068Z,21.78
2018-08-25T09:19:32.490Z,21.69
2018-08-25T09:23:52.043Z,21.59
2018-08-25T09:28:12.013Z,21.56
2018-08-25T09:32:29.337Z,21.54
2018-08-25T14:36:46.001Z,20.45
2018-08-25T15:59:17.930Z,20.73
2018-08-25T18:50:08.421Z,19.73
2018-08-25T22:25:41.450Z,17.38
2018-08-25T22:29:45.149Z,17.38
2018-08-25T22:33:54.713Z,17.33
2018-08-25T22:38:01.525Z,17.33
2018-08-25T22:42:05.525Z,17.23
2018-08-25T22:46:10.072Z,17.13
2018-08-25T22:50:14.788Z,17.08
2018-08-25T22:54:25.871Z,17.02
2018-08-25T22:58:30.968Z,16.97
2018-08-25T23:02:36.565Z,16.91
2018-08-25T23:06:42.789Z,16.87
2018-08-25T23:10:47.301Z,16.85
2018-08-25T23:14:54.402Z,16.85
2018-08-25T23:18:59.516Z,16.81
2018-08-25T23:23:05.027Z,16.78
2018-08-25T23:27:09.613Z,16.77
2018-08-25T23:31:14.542Z,16.75
2018-08-25T23:35:18.534Z,16.72
2018-08-25T23:39:22.570Z,16.67
2018-08-25T23:43:27.178Z,16.60
2018-08-25T23:47:31.067Z,16.59
2018-08-25T23:51:34.878Z,16.58
2018-08-25T23:55:39.276Z,16.55
2018-08-25T23:59:43.173Z,16.51
